createdAt,value
2022-12-28T00:01:48.719Z,2.40
2022-12-28T00:04:15.793Z,2.50
2022-12-28T00:06:42.685Z,2.63
2022-12-28T00:09:13.051Z,2.73
2022-12-28T00:11:40.609Z,2.90
2022-12-28T00:14:07.810Z,2.47
2022-12-28T00:16:41.245Z,2.43
2022-12-28T00:19:14.261Z,2.97
2022-12-28T00:21:42.889Z,2.33
2022-12-28T00:24:22.340Z,2.67
2022-12-28T00:26:50.377Z,2.57
2022-12-28T00:29:18.607Z,3.07
2022-12-28T00:31:46.015Z,2.70
2022-12-28T00:34:13.404Z,2.80
2022-12-28T00:37:10.161Z,2.83
2022-12-28T00:40:06.100Z,2.70
2022-12-28T00:42:33.121Z,2.87
2022-12-28T00:45:00.083Z,3.30
2022-12-28T00:47:27.235Z,3.20
2022-12-28T00:49:54.088Z,3.27
2022-12-28T00:52:20.987Z,3.13
2022-12-28T00:54:47.867Z,3.60
2022-12-28T00:57:14.809Z,2.73
2022-12-28T00:59:41.712Z,3.77
2022-12-28T01:02:08.748Z,2.60
2022-12-28T01:04:35.691Z,3.20
2022-12-28T01:07:02.589Z,3.00
2022-12-28T01:09:31.289Z,3.00
2022-12-28T01:11:58.202Z,3.20
2022-12-28T01:14:25.488Z,3.30
2022-12-28T01:16:52.494Z,3.00
2022-12-28T01:19:23.270Z,3.03
2022-12-28T01:21:52.029Z,2.93
2022-12-28T01:24:19.123Z,2.90
2022-12-28T01:26:46.106Z,3.30
2022-12-28T01:29:13.172Z,3.90
2022-12-28T01:31:40.109Z,3.53
2022-12-28T01:34:07.010Z,3.60
2022-12-28T01:36:35.155Z,3.03
2022-12-28T01:39:06.095Z,3.40
2022-12-28T01:41:38.396Z,3.23
2022-12-28T01:44:07.026Z,3.23
2022-12-28T01:47:00.142Z,2.80
2022-12-28T01:49:41.337Z,3.13
2022-12-28T01:52:35.863Z,2.90
2022-12-28T01:55:15.029Z,3.00
2022-12-28T01:57:50.867Z,3.47
2022-12-28T02:00:18.428Z,3.50
2022-12-28T02:02:55.008Z,2.87
2022-12-28T02:05:29.882Z,3.20
2022-12-28T02:08:12.497Z,2.90
2022-12-28T02:10:45.730Z,2.90
2022-12-28T02:13:19.606Z,2.97
2022-12-28T02:15:49.150Z,2.80
2022-12-28T02:18:22.429Z,3.00
2022-12-28T02:21:24.671Z,2.83
2022-12-28T02:24:06.918Z,2.53
2022-12-28T02:27:00.611Z,2.90
2022-12-28T02:29:43.234Z,2.90
2022-12-28T02:32:54.930Z,3.13
2022-12-28T02:35:58.164Z,3.33
2022-12-28T02:38:39.757Z,2.80
2022-12-28T02:41:20.508Z,2.93
2022-12-28T02:43:51.979Z,2.97
2022-12-28T02:46:48.207Z,2.83
2022-12-28T02:49:47.553Z,2.90
2022-12-28T02:53:30.874Z,2.70
2022-12-28T02:56:10.283Z,2.70
2022-12-28T02:59:10.131Z,2.77
2022-12-28T03:02:02.393Z,2.80
2022-12-28T03:05:14.865Z,3.10
2022-12-28T03:08:20.333Z,2.60
2022-12-28T03:11:29.075Z,3.10
2022-12-28T03:14:20.492Z,3.03
2022-12-28T03:17:14.179Z,3.20
2022-12-28T03:20:13.015Z,2.77
2022-12-28T03:23:04.129Z,3.00
2022-12-28T03:25:58.626Z,3.03
2022-12-28T03:28:53.431Z,3.20
2022-12-28T03:31:25.343Z,3.20
2022-12-28T03:34:07.641Z,2.93
2022-12-28T03:37:13.904Z,3.00
2022-12-28T03:40:39.826Z,2.77
2022-12-28T03:43:40.901Z,2.80
2022-12-28T03:46:31.450Z,2.90
2022-12-28T03:49:00.797Z,2.93
2022-12-28T03:51:33.439Z,2.70
2022-12-28T03:54:07.351Z,3.30
2022-12-28T03:56:34.482Z,2.60
2022-12-28T03:59:03.569Z,2.90
2022-12-28T04:01:38.455Z,2.70
2022-12-28T04:04:05.622Z,2.80
2022-12-28T04:06:33.389Z,2.30
2022-12-28T04:09:00.532Z,2.67
2022-12-28T04:11:31.047Z,2.50
2022-12-28T04:13:59.392Z,2.60
2022-12-28T04:16:32.963Z,2.57
2022-12-28T04:19:00.832Z,2.70
2022-12-28T04:21:29.635Z,2.80
2022-12-28T04:23:56.687Z,2.50
2022-12-28T04:26:23.863Z,2.80
2022-12-28T04:28:53.278Z,2.63
2022-12-28T04:31:39.297Z,2.20
2022-12-28T04:34:10.048Z,2.60
2022-12-28T04:36:41.887Z,2.37
2022-12-28T04:39:13.854Z,2.80
2022-12-28T04:41:41.961Z,2.30
2022-12-28T04:44:09.264Z,2.30
2022-12-28T04:46:37.743Z,2.33
2022-12-28T04:49:05.468Z,2.30
2022-12-28T04:51:34.063Z,2.60
2022-12-28T04:54:01.586Z,2.60
2022-12-28T04:56:28.769Z,2.27
2022-12-28T04:58:58.509Z,2.10
2022-12-28T05:01:26.248Z,2.27
2022-12-28T05:03:58.052Z,2.20
2022-12-28T05:06:27.836Z,2.10
2022-12-28T05:08:57.003Z,1.90
2022-12-28T05:11:27.958Z,2.33
2022-12-28T05:13:55.849Z,2.30
2022-12-28T05:16:25.817Z,2.17
2022-12-28T05:18:53.543Z,2.03
2022-12-28T05:21:25.801Z,2.13
2022-12-28T05:23:53.962Z,2.03
2022-12-28T05:26:25.801Z,2.10
2022-12-28T05:28:53.060Z,2.00
2022-12-28T05:31:22.747Z,2.03
2022-12-28T05:33:51.596Z,2.10
2022-12-28T05:36:25.965Z,2.23
2022-12-28T05:38:54.625Z,1.77
2022-12-28T05:41:26.856Z,2.07
2022-12-28T05:43:56.815Z,1.90
2022-12-28T05:46:33.559Z,1.93
2022-12-28T05:49:02.095Z,1.90
2022-12-28T05:51:33.007Z,1.90
2022-12-28T05:54:04.592Z,1.60
2022-12-28T05:56:33.172Z,1.90
2022-12-28T05:59:08.051Z,1.90
2022-12-28T06:01:39.235Z,1.80
2022-12-28T06:04:14.180Z,1.70
2022-12-28T06:06:42.145Z,1.80
2022-12-28T06:09:09.362Z,1.80
2022-12-28T06:11:36.796Z,1.77
2022-12-28T06:14:06.005Z,1.80
2022-12-28T06:16:39.449Z,2.00
2022-12-28T06:19:10.319Z,1.67
2022-12-28T06:21:40.006Z,1.63
2022-12-28T06:24:09.136Z,1.70
2022-12-28T06:26:39.773Z,1.53
2022-12-28T06:29:07.529Z,1.80
2022-12-28T06:31:57.357Z,1.70
2022-12-28T06:34:24.610Z,1.80
2022-12-28T06:36:52.863Z,1.80
2022-12-28T06:39:23.069Z,1.90
2022-12-28T06:41:52.858Z,2.00
2022-12-28T06:44:23.255Z,1.80
2022-12-28T06:46:53.336Z,1.80
2022-12-28T06:49:24.233Z,1.90
2022-12-28T06:51:51.363Z,1.70
2022-12-28T06:54:21.268Z,2.10
2022-12-28T06:56:52.576Z,2.00
2022-12-28T06:59:20.599Z,1.70
2022-12-28T07:01:50.048Z,1.70
2022-12-28T07:04:19.716Z,1.70
2022-12-28T07:06:46.698Z,1.60
2022-12-28T07:09:16.403Z,1.87
2022-12-28T07:11:44.381Z,1.70
2022-12-28T07:14:12.143Z,1.57
2022-12-28T07:19:05.255Z,1.83
2022-12-28T07:21:36.744Z,1.33
2022-12-28T07:24:05.837Z,1.67
2022-12-28T07:26:35.951Z,1.63
2022-12-28T07:29:06.059Z,1.60
2022-12-28T07:31:44.050Z,1.30
2022-12-28T07:34:13.482Z,1.30
2022-12-28T07:36:41.184Z,1.23
2022-12-28T07:39:08.420Z,1.43
2022-12-28T07:41:36.321Z,1.30
2022-12-28T07:44:07.104Z,1.50
2022-12-28T07:46:37.492Z,1.87
2022-12-28T07:49:05.799Z,1.60
2022-12-28T07:51:37.131Z,1.50
2022-12-28T07:54:06.583Z,1.70
2022-12-28T07:59:05.102Z,1.87
2022-12-28T08:01:35.723Z,1.70
2022-12-28T08:04:07.895Z,1.60
2022-12-28T08:06:40.488Z,1.57
2022-12-28T08:09:11.037Z,1.80
2022-12-28T08:11:45.800Z,1.50
2022-12-28T08:14:13.312Z,1.60
2022-12-28T08:16:46.854Z,1.80
2022-12-28T08:19:18.052Z,1.60
2022-12-28T08:21:52.327Z,1.70
2022-12-28T08:24:21.399Z,1.73
2022-12-28T08:26:52.108Z,1.90
2022-12-28T08:29:24.928Z,1.90
2022-12-28T08:31:55.133Z,1.90
2022-12-28T08:34:27.137Z,1.70
2022-12-28T08:36:56.650Z,2.63
2022-12-28T08:39:23.974Z,2.00
2022-12-28T08:41:51.440Z,2.00
2022-12-28T08:44:24.735Z,2.10
2022-12-28T08:46:58.616Z,1.90
2022-12-28T08:49:25.701Z,2.10
2022-12-28T08:51:53.137Z,1.93
2022-12-28T08:54:23.396Z,2.07
2022-12-28T08:56:53.825Z,1.77
2022-12-28T08:59:21.501Z,1.93
2022-12-28T09:01:52.474Z,2.00
2022-12-28T09:04:23.223Z,1.70
2022-12-28T09:06:51.466Z,2.10
2022-12-28T09:09:22.451Z,1.77
2022-12-28T09:11:52.724Z,1.73
2022-12-28T09:14:24.245Z,1.60
2022-12-28T09:16:54.150Z,1.73
2022-12-28T09:19:22.102Z,2.00
2022-12-28T09:21:55.534Z,1.77
2022-12-28T09:24:23.591Z,1.40
2022-12-28T09:26:55.382Z,1.43
2022-12-28T09:29:25.605Z,1.80
2022-12-28T09:31:55.456Z,1.47
2022-12-28T09:34:35.506Z,1.60
2022-12-28T09:37:06.892Z,1.73
2022-12-28T09:39:35.185Z,1.67
2022-12-28T09:42:29.151Z,1.70
2022-12-28T09:45:11.706Z,1.20
2022-12-28T09:47:48.859Z,1.30
2022-12-28T09:50:28.608Z,1.60
2022-12-28T09:53:26.657Z,1.60
2022-12-28T09:56:28.764Z,1.50
2022-12-28T09:58:56.621Z,1.70
2022-12-28T10:01:26.896Z,1.30
2022-12-28T10:03:57.933Z,1.37
2022-12-28T10:06:32.452Z,1.33
2022-12-28T10:09:05.575Z,1.40
2022-12-28T10:11:42.962Z,1.30
2022-12-28T10:14:36.588Z,1.13
2022-12-28T10:17:06.614Z,1.40
2022-12-28T10:19:34.244Z,1.70
2022-12-28T10:22:09.968Z,1.43
2022-12-28T10:24:40.357Z,1.40
2022-12-28T10:27:19.394Z,1.50
2022-12-28T10:29:53.218Z,1.80
2022-12-28T10:32:23.431Z,1.57
2022-12-28T10:35:02.294Z,1.97
2022-12-28T10:37:44.756Z,1.40
2022-12-28T10:41:00.818Z,1.43
2022-12-28T10:43:35.886Z,1.50
2022-12-28T10:46:07.592Z,1.67
2022-12-28T10:48:39.462Z,1.90
2022-12-28T10:51:26.768Z,1.70
2022-12-28T10:53:57.507Z,1.70
2022-12-28T10:56:27.886Z,1.80
2022-12-28T10:59:35.996Z,1.80
2022-12-28T11:02:35.554Z,1.80
2022-12-28T11:05:09.546Z,1.80
2022-12-28T11:07:41.239Z,1.60
2022-12-28T11:10:30.360Z,1.70
2022-12-28T11:13:01.215Z,1.80
2022-12-28T11:15:32.424Z,1.90
2022-12-28T11:18:07.142Z,1.70
2022-12-28T11:20:39.989Z,1.70
2022-12-28T11:23:09.251Z,1.70
2022-12-28T11:25:37.606Z,1.60
2022-12-28T11:28:16.521Z,1.87
2022-12-28T11:30:45.974Z,1.97
2022-12-28T11:33:51.736Z,1.77
2022-12-28T11:36:26.870Z,1.83
2022-12-28T11:38:56.598Z,1.83
2022-12-28T11:41:33.671Z,1.97
2022-12-28T11:44:05.639Z,1.63
2022-12-28T11:46:35.628Z,1.67
2022-12-28T11:49:22.209Z,1.67
2022-12-28T11:52:31.780Z,1.50
2022-12-28T11:55:23.153Z,1.90
2022-12-28T11:57:55.024Z,1.77
2022-12-28T12:00:25.032Z,1.70
2022-12-28T12:03:02.687Z,1.47
2022-12-28T12:05:36.570Z,1.70
2022-12-28T12:08:14.291Z,1.40
2022-12-28T12:10:50.091Z,1.80
2022-12-28T12:13:43.559Z,1.47
2022-12-28T12:16:35.911Z,1.40
2022-12-28T12:19:07.184Z,1.70
2022-12-28T12:21:45.000Z,1.70
2022-12-28T12:25:03.800Z,1.57
2022-12-28T12:27:33.712Z,1.93
2022-12-28T12:30:15.059Z,1.57
2022-12-28T12:33:21.742Z,1.70
2022-12-28T12:36:13.821Z,1.50
2022-12-28T12:39:05.314Z,2.20
2022-12-28T12:42:35.543Z,1.83
2022-12-28T12:45:42.396Z,1.80
2022-12-28T12:48:49.780Z,2.03
2022-12-28T12:51:30.725Z,1.73
2022-12-28T12:54:41.373Z,1.80
2022-12-28T12:57:39.642Z,1.90
2022-12-28T13:00:20.883Z,1.80
2022-12-28T13:03:31.429Z,1.90
2022-12-28T13:06:01.056Z,2.20
2022-12-28T13:08:50.095Z,1.90
2022-12-28T13:11:23.205Z,2.20
2022-12-28T13:13:57.294Z,2.30
2022-12-28T13:16:30.382Z,2.10
2022-12-28T13:19:03.136Z,1.70
2022-12-28T13:21:51.641Z,2.03
2022-12-28T13:24:31.676Z,1.67
2022-12-28T13:27:02.605Z,1.90
2022-12-28T13:29:40.141Z,2.20
2022-12-28T13:32:38.531Z,1.97
2022-12-28T13:35:22.875Z,1.90
2022-12-28T13:38:20.594Z,1.70
2022-12-28T13:40:54.026Z,2.00
2022-12-28T13:44:12.077Z,2.03
2022-12-28T13:46:44.452Z,2.00
2022-12-28T13:49:13.203Z,2.13
2022-12-28T13:51:41.977Z,2.17
2022-12-28T13:54:11.573Z,2.30
2022-12-28T13:56:43.086Z,2.00
2022-12-28T13:59:21.456Z,2.00
2022-12-28T14:01:51.359Z,2.10
2022-12-28T14:04:51.823Z,1.90
2022-12-28T14:07:24.558Z,2.33
2022-12-28T14:09:53.304Z,1.93
2022-12-28T14:12:23.039Z,1.87
2022-12-28T14:14:54.051Z,1.80
2022-12-28T14:17:23.546Z,1.93
2022-12-28T14:19:55.830Z,1.67
2022-12-28T14:22:33.829Z,1.70
2022-12-28T14:25:25.343Z,1.70
2022-12-28T14:28:06.171Z,1.97
2022-12-28T14:30:42.219Z,1.80
2022-12-28T14:33:24.755Z,2.00
2022-12-28T14:36:27.131Z,2.10
2022-12-28T14:41:52.755Z,1.53
2022-12-28T14:44:56.198Z,1.70
2022-12-28T14:47:44.720Z,2.00
2022-12-28T14:50:33.382Z,2.00
2022-12-28T14:53:22.268Z,1.60
2022-12-28T14:56:16.709Z,1.70
2022-12-28T14:58:53.692Z,1.70
2022-12-28T15:00:25.039Z,1.73
2022-12-28T15:01:22.762Z,1.60
2022-12-28T15:04:03.608Z,1.67
2022-12-28T15:06:32.512Z,1.50
2022-12-28T15:09:01.268Z,1.80
2022-12-28T15:11:32.135Z,1.80
2022-12-28T15:13:59.441Z,1.50
2022-12-28T15:16:26.690Z,1.57
2022-12-28T15:18:53.983Z,1.63
2022-12-28T15:21:24.104Z,1.40
2022-12-28T15:23:54.552Z,2.00
2022-12-28T15:26:24.044Z,1.60
2022-12-28T15:28:51.723Z,1.90
2022-12-28T15:31:23.714Z,1.80
2022-12-28T15:33:52.659Z,1.67
2022-12-28T15:36:25.254Z,1.60
2022-12-28T15:38:52.421Z,1.80
2022-12-28T15:41:41.538Z,1.70
2022-12-28T15:44:09.006Z,1.57
2022-12-28T15:46:41.875Z,2.00
2022-12-28T15:49:14.150Z,2.00
2022-12-28T15:51:42.869Z,1.90
2022-12-28T15:54:13.113Z,1.70
2022-12-28T15:56:42.464Z,1.80
2022-12-28T15:59:15.904Z,2.20
2022-12-28T16:01:45.653Z,1.50
2022-12-28T16:04:13.444Z,1.70
2022-12-28T16:06:44.541Z,2.33
2022-12-28T16:09:14.048Z,1.93
2022-12-28T16:11:42.074Z,1.60
2022-12-28T16:14:16.457Z,1.80
2022-12-28T16:16:46.600Z,1.40
2022-12-28T16:19:15.163Z,1.80
2022-12-28T16:21:43.299Z,2.17
2022-12-28T16:24:11.319Z,1.90
2022-12-28T16:26:38.562Z,2.10
2022-12-28T16:29:05.649Z,1.87
2022-12-28T16:31:36.528Z,1.80
2022-12-28T16:34:14.955Z,1.87
2022-12-28T16:36:46.556Z,2.10
2022-12-28T16:39:19.779Z,1.80
2022-12-28T16:41:47.913Z,1.70
2022-12-28T16:44:24.356Z,1.57
2022-12-28T16:46:51.875Z,1.60
2022-12-28T16:49:20.391Z,1.80
2022-12-28T16:51:48.759Z,2.03
2022-12-28T16:54:22.328Z,1.70
2022-12-28T16:56:51.090Z,2.40
2022-12-28T16:59:25.377Z,1.80
2022-12-28T17:01:54.339Z,2.10
2022-12-28T17:04:22.371Z,1.73
2022-12-28T17:06:55.770Z,2.00
2022-12-28T17:09:22.819Z,1.80
2022-12-28T17:11:51.090Z,2.17
2022-12-28T17:14:36.564Z,1.83
2022-12-28T17:17:06.602Z,1.80
2022-12-28T17:19:34.043Z,1.70
2022-12-28T17:22:04.134Z,1.93
2022-12-28T17:24:31.663Z,1.77
2022-12-28T17:27:05.243Z,1.80
2022-12-28T17:29:35.876Z,1.80
2022-12-28T17:32:03.527Z,1.60
2022-12-28T17:34:32.084Z,1.63
2022-12-28T17:36:59.162Z,1.60
2022-12-28T17:39:26.472Z,1.50
2022-12-28T17:41:53.481Z,1.50
2022-12-28T17:44:23.467Z,1.50
2022-12-28T17:46:51.689Z,1.80
2022-12-28T17:49:21.606Z,1.70
2022-12-28T17:51:52.477Z,1.57
2022-12-28T17:54:20.009Z,1.50
2022-12-28T17:56:47.041Z,1.60
2022-12-28T17:59:17.717Z,1.80
2022-12-28T18:01:53.583Z,1.60
2022-12-28T18:04:20.904Z,1.63
2022-12-28T18:06:49.952Z,1.50
2022-12-28T18:09:24.007Z,1.50
2022-12-28T18:11:55.009Z,1.53
2022-12-28T18:14:22.465Z,1.50
2022-12-28T18:16:52.126Z,1.77
2022-12-28T18:19:22.347Z,1.70
2022-12-28T18:21:52.727Z,1.60
2022-12-28T18:24:21.185Z,1.70
2022-12-28T18:26:51.035Z,1.40
2022-12-28T18:29:22.318Z,1.70
2022-12-28T18:31:52.686Z,2.10
2022-12-28T18:34:22.444Z,1.90
2022-12-28T18:36:50.789Z,1.80
2022-12-28T18:39:20.082Z,1.80
2022-12-28T18:41:49.737Z,1.83
2022-12-28T18:44:20.014Z,1.80
2022-12-28T18:46:54.960Z,1.70
2022-12-28T18:49:22.330Z,1.70
2022-12-28T18:51:52.640Z,1.73
2022-12-28T18:54:24.603Z,1.70
2022-12-28T18:56:52.112Z,2.00
2022-12-28T18:59:20.969Z,1.80
2022-12-28T19:02:08.956Z,1.83
2022-12-28T19:04:40.624Z,1.90
2022-12-28T19:07:07.963Z,1.70
2022-12-28T19:09:35.124Z,1.80
2022-12-28T19:12:02.549Z,1.70
2022-12-28T19:14:29.699Z,1.90
2022-12-28T19:16:59.296Z,2.13
2022-12-28T19:19:26.562Z,1.77
2022-12-28T19:21:58.676Z,1.77
2022-12-28T19:24:26.974Z,1.70
2022-12-28T19:26:54.119Z,2.00
2022-12-28T19:29:21.171Z,2.30
2022-12-28T19:31:51.908Z,1.90
2022-12-28T19:34:22.768Z,1.80
2022-12-28T19:36:51.184Z,2.20
2022-12-28T19:39:21.345Z,1.93
2022-12-28T19:41:51.587Z,1.90
2022-12-28T19:44:21.750Z,1.80
2022-12-28T19:46:54.998Z,1.80
2022-12-28T19:49:25.077Z,2.20
2022-12-28T19:51:52.348Z,2.10
2022-12-28T19:54:23.002Z,1.77
2022-12-28T19:56:50.821Z,1.90
2022-12-28T19:59:19.529Z,1.97
2022-12-28T20:01:46.846Z,1.80
2022-12-28T20:04:16.806Z,2.07
2022-12-28T20:06:48.845Z,1.80
2022-12-28T20:09:16.237Z,2.03
2022-12-28T20:11:45.091Z,1.90
2022-12-28T20:14:40.577Z,2.13
2022-12-28T20:17:07.674Z,2.07
2022-12-28T20:19:35.087Z,1.93
2022-12-28T20:22:02.496Z,1.70
2022-12-28T20:24:35.648Z,1.73
2022-12-28T20:27:02.843Z,2.10
2022-12-28T20:29:29.976Z,2.10
2022-12-28T20:31:57.314Z,2.50
2022-12-28T20:34:27.554Z,1.87
2022-12-28T20:36:54.693Z,1.90
2022-12-28T20:39:21.672Z,2.10
2022-12-28T20:42:11.011Z,1.70
2022-12-28T20:44:38.211Z,1.90
2022-12-28T20:47:05.354Z,1.70
2022-12-28T20:49:32.773Z,2.00
2022-12-28T20:52:02.302Z,1.87
2022-12-28T20:54:29.926Z,2.07
2022-12-28T20:56:57.060Z,2.30
2022-12-28T20:59:26.337Z,1.70
2022-12-28T21:01:54.608Z,1.97
2022-12-28T21:04:24.525Z,2.00
2022-12-28T21:06:55.288Z,1.97
2022-12-28T21:09:22.988Z,1.70
2022-12-28T21:11:50.224Z,1.97
2022-12-28T21:14:19.856Z,1.90
2022-12-28T21:16:49.927Z,2.37
2022-12-28T21:19:19.931Z,2.00
2022-12-28T21:21:50.026Z,1.90
2022-12-28T21:24:17.207Z,1.80
2022-12-28T21:26:50.267Z,2.30
2022-12-28T21:29:25.576Z,2.07
2022-12-28T21:31:54.949Z,2.20
2022-12-28T21:34:22.739Z,2.00
2022-12-28T21:36:50.130Z,2.10
2022-12-28T21:39:20.024Z,1.80
2022-12-28T21:41:51.950Z,1.90
2022-12-28T21:44:24.782Z,2.00
2022-12-28T21:46:53.866Z,1.83
2022-12-28T21:49:24.236Z,2.00
2022-12-28T21:51:59.649Z,2.20
2022-12-28T21:54:29.784Z,1.90
2022-12-28T21:56:57.388Z,1.83
2022-12-28T21:59:26.183Z,2.10
2022-12-28T22:02:13.051Z,1.80
2022-12-28T22:05:02.656Z,2.07
2022-12-28T22:07:34.207Z,1.77
2022-12-28T22:10:25.207Z,2.13
2022-12-28T22:12:52.453Z,1.97
2022-12-28T22:15:43.606Z,2.07
2022-12-28T22:18:52.634Z,1.80
2022-12-28T22:21:14.387Z,1.90
2022-12-28T22:23:41.748Z,2.03
2022-12-28T22:26:09.127Z,2.00
2022-12-28T22:28:36.232Z,1.90
2022-12-28T22:31:07.943Z,1.90
2022-12-28T22:33:36.027Z,2.13
2022-12-28T22:36:15.806Z,2.50
2022-12-28T22:38:44.022Z,2.10
2022-12-28T22:41:14.727Z,2.33
2022-12-28T22:43:51.713Z,2.47
2022-12-28T22:46:22.724Z,2.27
2022-12-28T22:48:56.502Z,2.00
2022-12-28T22:51:23.636Z,2.27
2022-12-28T22:53:50.920Z,2.10
2022-12-28T22:56:20.771Z,1.83
2022-12-28T22:58:51.466Z,1.93
2022-12-28T23:01:21.869Z,2.00
2022-12-28T23:03:52.345Z,1.83
2022-12-28T23:06:22.334Z,1.93
2022-12-28T23:08:52.833Z,1.80
2022-12-28T23:11:39.499Z,1.63
2022-12-28T23:14:39.585Z,1.60
2022-12-28T23:17:15.109Z,1.67
2022-12-28T23:20:04.348Z,1.80
2022-12-28T23:22:53.458Z,1.80
2022-12-28T23:25:44.086Z,1.80
2022-12-28T23:28:16.455Z,1.40
2022-12-28T23:30:49.901Z,1.60
2022-12-28T23:33:22.310Z,1.73
2022-12-28T23:35:51.445Z,1.57
2022-12-28T23:38:24.078Z,1.60
2022-12-28T23:41:11.107Z,1.60
2022-12-28T23:43:38.615Z,1.60
2022-12-28T23:46:06.062Z,1.73
2022-12-28T23:48:35.386Z,2.00
2022-12-28T23:51:08.608Z,1.40
2022-12-28T23:53:46.279Z,1.40
2022-12-28T23:56:13.483Z,1.20
2022-12-28T23:58:40.607Z,0.83
